航空気象通報

ウインドサーファーのための航空気象通報による風予報です。

10/28-10/30の航空気象通報

2016年10月29日 00時37分00秒 | TAF
羽田空港
TAF RJTT 281105Z 2812/2918 34010KT 8000 FEW008 BKN015
TEMPO 2812/2815 2500 RA BR FEW003 BKN005
TEMPO 2815/2818 4000 -RA BR FEW005 BKN008
BECMG 2819/2821 35020KT
BECMG 2906/2909 05016KT
日本時間28日21時-29日04時:340度から10ノットの風
04-06時:風が変化
05-15時:350度から20ノットの風
15-18時:風が変化
18時-30日03時:050度から16ノットの風

但し、28日21-24時の間:ときどき
但し、29日00-03時の間:ときどき

静岡空港
TAF RJNS 281106Z 2812/2918 04004KT 4000 -SHRA BR FEW005 BKN012
TEMPO 2812/2817 1500 -SHRA BR FEW001 BKN003
BECMG 2816/2818 26013KT 9999 NSW
BECMG 2900/2903 12008KT
日本時間28日21時-29日01時:040度から4ノットの風
01-03時:風が変化
03-09時:260度から13ノットの風
09-12時:風が変化
12時-30日03時:120度から8ノットの風
、29日01-03時の後、

福岡空港
TAF RJFF 281106Z 2812/2918 02013KT 7000 -SHRA FEW005 SCT010 BKN015
TEMPO 2812/2815 03015G25KT 4000 -SHRA BR FEW005 BKN008 BKN015
BECMG 2912/2915 07003KT
日本時間28日21時-29日21時:020度から13ノットの風
但し、28日21-24時の間:ときどき030度から15ノット、突風25ノット
21-24時:風が変化
30日00-03時:070度から3ノットの風


那覇空港
TAF ROAH 281105Z 2812/2918 01009KT 9999 FEW015 SCT025
BECMG 2822/2824 02020KT
日本時間28日21時-29日07時:010度から9ノットの風
07-09時:風が変化
09時-30日03時:020度から20ノットの風


石垣空港
TAF ROIG 281107Z 2812/2918 05011KT 9999 FEW015
BECMG 2900/2903 05021KT
日本時間28日21時-29日09時:050度から11ノットの風
09-12時:風が変化
12時-30日03時:050度から21ノットの風


マウイのカフルイ空港
PHOG 281127Z 2812/2912 06010KT P6SM VCSH FEW030 SCT050 BKN250
FM281900 06020G30KT P6SM VCSH FEW030 SCT050
FM290400 06012G20KT P6SM VCSH FEW030 SCT050 AMD LTD TO VIS AND WIND TIL 281600
ハワイ時間28日02-09時:060度から10ノットの風

09-18時:060度から20ノット、突風30ノット
18時-29日02時:060度から12ノット、突風20ノット


サイパン空港
TAF PGSN 281120Z 2812/2912 07009KT P6SM VCSH FEW020 SCT050 SCT120
FM290100 07011G18KT P6SM VCSH FEW020 SCT050
マリアナ時間28日22時-29日11時:070度から9ノットの風
01-22時:070度から11ノット、突風18ノット
ジャンル:
お天気
コメント   この記事についてブログを書く
この記事をはてなブックマークに追加
« 10/27-10/29の航空気象通報 | トップ | 10/29-10/31の航空気象通報 »
最近の画像もっと見る

コメントを投稿

ブログ作成者から承認されるまでコメントは反映されません。

コメント利用規約に同意の上コメント投稿を行ってください。

数字4桁を入力し、投稿ボタンを押してください。

あわせて読む

トラックバック

この記事のトラックバック  Ping-URL
ブログ作成者から承認されるまでトラックバックは反映されません。
  • 30日以上前の記事に対するトラックバックは受け取らないよう設定されております。
  • 送信元の記事内容が半角英数のみのトラックバックは受け取らないよう設定されております。
  • このブログへのリンクがない記事からのトラックバックは受け取らないよう設定されております。
  • ※ブログ管理者のみ、編集画面で設定の変更が可能です。